createdAt,value
2023-04-18T10:12:42.097Z,45.00
2023-04-18T10:13:42.996Z,50.62
2023-04-18T10:14:43.017Z,50.62
2023-04-18T10:15:44.263Z,50.62
2023-04-18T10:16:43.021Z,45.00
2023-04-18T10:17:56.083Z,33.75
2023-04-18T10:18:42.959Z,33.75
2023-04-18T10:19:42.907Z,39.38
2023-04-18T10:20:42.942Z,33.75
2023-04-18T10:21:42.886Z,33.75
2023-04-18T10:22:42.929Z,39.38
2023-04-18T10:23:42.881Z,39.38
2023-04-18T10:24:42.905Z,56.25
2023-04-18T10:25:42.839Z,45.00
2023-04-18T10:26:42.875Z,56.25
2023-04-18T10:27:44.725Z,45.00
2023-04-18T10:28:42.843Z,45.00
2023-04-18T10:29:42.801Z,50.62
2023-04-18T10:30:42.830Z,50.62
2023-04-18T10:31:42.864Z,56.25
2023-04-18T10:32:42.866Z,56.25
2023-04-18T10:33:42.915Z,56.25
2023-04-18T10:34:42.786Z,61.88
2023-04-18T10:35:42.736Z,45.00
2023-04-18T10:36:42.747Z,45.00
2023-04-18T10:37:42.780Z,45.00
2023-04-18T10:38:42.753Z,50.62
2023-04-18T10:39:42.719Z,50.62
2023-04-18T10:40:42.746Z,56.25
2023-04-18T10:41:42.704Z,50.62
2023-04-18T10:42:42.713Z,50.62
2023-04-18T10:43:42.728Z,50.62
2023-04-18T10:44:42.705Z,45.00
2023-04-18T10:45:42.651Z,61.88
2023-04-18T10:46:42.747Z,61.88
2023-04-18T10:47:48.900Z,45.00
2023-04-18T10:48:42.642Z,45.00
2023-04-18T10:49:42.614Z,50.62
2023-04-18T10:50:42.986Z,84.38
2023-04-18T10:51:42.580Z,90.00
2023-04-18T10:52:42.598Z,56.25
2023-04-18T10:53:42.683Z,45.00
2023-04-18T10:54:42.599Z,39.38
2023-04-18T10:55:42.533Z,39.38
2023-04-18T10:56:42.565Z,39.38
2023-04-18T10:57:42.562Z,39.38
2023-04-18T10:58:42.562Z,39.38
2023-04-18T10:59:42.530Z,33.75
2023-04-18T11:00:42.576Z,33.75
2023-04-18T11:01:42.469Z,33.75
2023-04-18T11:02:42.580Z,39.38
2023-04-18T11:03:42.479Z,33.75
2023-04-18T11:04:42.497Z,33.75
2023-04-18T11:05:42.426Z,33.75
2023-04-18T11:06:42.467Z,33.75
2023-04-18T11:07:42.411Z,33.75
2023-04-18T11:08:42.428Z,33.75
2023-04-18T11:09:44.483Z,33.75
2023-04-18T11:10:42.427Z,33.75
2023-04-18T11:11:42.361Z,33.75
2023-04-18T11:12:42.390Z,33.75
2023-04-18T11:13:42.389Z,33.75
2023-04-18T11:14:42.389Z,28.12
2023-04-18T11:15:42.376Z,28.12
2023-04-18T11:16:42.379Z,28.12
2023-04-18T11:17:42.331Z,28.12
2023-04-18T11:18:42.330Z,28.12
2023-04-18T11:19:42.265Z,28.12
2023-04-18T11:20:42.360Z,28.12
2023-04-18T11:21:42.258Z,28.12
2023-04-18T11:22:42.279Z,28.12
2023-04-18T11:23:42.239Z,22.50
2023-04-18T11:24:42.243Z,22.50
2023-04-18T11:25:42.246Z,22.50
2023-04-18T11:26:42.236Z,22.50
2023-04-18T11:27:42.188Z,22.50
2023-04-18T11:28:42.220Z,22.50
2023-04-18T11:29:42.179Z,22.50
2023-04-18T11:30:42.236Z,22.50
2023-04-18T11:31:42.189Z,22.50
2023-04-18T11:32:42.225Z,22.50
2023-04-18T11:33:42.158Z,22.50
2023-04-18T11:34:42.176Z,22.50
2023-04-18T11:35:42.178Z,22.50
2023-04-18T11:36:42.148Z,22.50
2023-04-18T11:37:42.119Z,22.50
2023-04-18T11:38:42.081Z,22.50
2023-04-18T11:39:42.128Z,22.50
2023-04-18T11:40:42.080Z,22.50
2023-04-18T11:41:42.083Z,22.50
2023-04-18T11:42:42.058Z,22.50
2023-04-18T11:43:42.097Z,22.50
2023-04-18T11:44:42.022Z,22.50
2023-04-18T11:45:42.095Z,22.50
2023-04-18T11:46:41.997Z,28.12
2023-04-18T11:47:42.046Z,28.12
2023-04-18T11:48:41.977Z,28.12
2023-04-18T11:49:42.001Z,28.12
2023-04-18T11:50:41.998Z,28.12
2023-04-18T11:51:41.977Z,33.75
2023-04-18T11:52:41.940Z,33.75
2023-04-18T11:53:41.979Z,33.75
2023-04-18T11:54:41.939Z,33.75
2023-04-18T11:55:41.958Z,33.75
2023-04-18T11:56:41.953Z,33.75
2023-04-18T11:57:41.990Z,39.38
2023-04-18T11:58:41.931Z,33.75
2023-04-18T11:59:42.325Z,33.75
2023-04-18T12:00:41.885Z,33.75
2023-04-18T12:01:41.872Z,33.75
2023-04-18T12:02:42.030Z,33.75
2023-04-18T12:03:41.987Z,33.75
2023-04-18T12:04:41.983Z,33.75
2023-04-18T12:05:42.081Z,28.12
2023-04-18T12:06:41.796Z,28.12
2023-04-18T12:07:41.854Z,28.12
2023-04-18T12:08:41.766Z,28.12
2023-04-18T12:09:41.809Z,28.12
2023-04-18T12:10:41.754Z,22.50
2023-04-18T12:11:41.781Z,22.50
2023-04-18T12:12:41.731Z,22.50
2023-04-18T12:13:41.755Z,22.50
2023-04-18T12:14:41.700Z,22.50
2023-04-18T12:15:41.743Z,22.50
2023-04-18T12:16:41.703Z,22.50
2023-04-18T12:17:41.778Z,16.88
2023-04-18T12:18:41.659Z,22.50
2023-04-18T12:19:41.686Z,22.50
2023-04-18T12:20:41.649Z,22.50
2023-04-18T12:21:41.697Z,22.50
2023-04-18T12:22:41.619Z,22.50
2023-04-18T12:23:41.658Z,22.50
2023-04-18T12:24:41.604Z,22.50
2023-04-18T12:25:41.614Z,28.12
2023-04-18T12:26:41.593Z,28.12
2023-04-18T12:27:41.627Z,28.12
2023-04-18T12:28:41.568Z,28.12
2023-04-18T12:29:41.616Z,28.12
2023-04-18T12:30:41.551Z,28.12
2023-04-18T12:31:41.611Z,28.12
2023-04-18T12:32:41.555Z,28.12
2023-04-18T12:33:41.539Z,28.12
2023-04-18T12:34:41.526Z,28.12
2023-04-18T12:35:41.514Z,28.12
2023-04-18T12:36:41.474Z,28.12
2023-04-18T12:37:41.494Z,28.12
2023-04-18T12:38:41.469Z,28.12
2023-04-18T12:39:41.535Z,28.12
2023-04-18T12:40:41.437Z,28.12
2023-04-18T12:41:41.447Z,33.75
2023-04-18T12:42:41.425Z,33.75
2023-04-18T12:43:41.437Z,33.75
2023-04-18T12:44:41.403Z,33.75
2023-04-18T12:45:41.456Z,33.75
2023-04-18T12:46:41.417Z,33.75
2023-04-18T12:47:41.465Z,33.75
2023-04-18T12:48:41.356Z,33.75
2023-04-18T12:49:41.368Z,33.75
2023-04-18T12:50:41.374Z,33.75
2023-04-18T12:51:41.364Z,28.12
2023-04-18T12:52:41.362Z,28.12
2023-04-18T12:53:41.336Z,28.12
2023-04-18T12:54:41.286Z,28.12
2023-04-18T12:55:41.297Z,28.12
2023-04-18T12:56:41.421Z,33.75
2023-04-18T12:57:41.318Z,28.12
2023-04-18T12:58:41.247Z,28.12
2023-04-18T12:59:41.264Z,28.12
2023-04-18T13:00:41.250Z,28.12
2023-04-18T13:01:41.242Z,28.12
2023-04-18T13:02:41.355Z,28.12
2023-04-18T13:03:41.481Z,28.12
2023-04-18T13:04:41.382Z,33.75
2023-04-18T13:05:41.190Z,33.75
2023-04-18T13:06:41.155Z,33.75
2023-04-18T13:07:41.177Z,33.75
2023-04-18T13:08:41.132Z,39.38
2023-04-18T13:09:41.201Z,39.38
2023-04-18T13:10:41.147Z,39.38
2023-04-18T13:11:41.140Z,45.00
2023-04-18T13:12:41.119Z,50.62
2023-04-18T13:13:41.140Z,39.38
2023-04-18T13:14:41.079Z,61.88
2023-04-18T13:15:41.129Z,61.88
2023-04-18T13:16:43.573Z,78.75
2023-04-18T13:17:41.114Z,84.38
2023-04-18T13:18:41.065Z,67.50
2023-04-18T13:19:41.068Z,61.88
2023-04-18T13:20:41.066Z,50.62
2023-04-18T13:21:41.026Z,50.62
2023-04-18T13:22:40.998Z,45.00
2023-04-18T13:23:41.026Z,45.00
2023-04-18T13:24:40.972Z,39.38
2023-04-18T13:25:41.024Z,39.38
2023-04-18T13:26:40.963Z,39.38
2023-04-18T13:27:41.975Z,39.38
2023-04-18T13:28:40.956Z,33.75
2023-04-18T13:29:40.944Z,39.38
2023-04-18T13:30:40.920Z,39.38
2023-04-18T13:31:41.828Z,39.38
2023-04-18T13:32:41.295Z,39.38
2023-04-18T13:33:40.933Z,45.00
2023-04-18T13:34:40.872Z,45.00
2023-04-18T13:35:40.974Z,45.00
2023-04-18T13:36:40.856Z,50.62
2023-04-18T13:37:40.869Z,56.25
2023-04-18T13:38:40.829Z,45.00
2023-04-18T13:39:40.840Z,50.62
2023-04-18T13:40:40.828Z,50.62
2023-04-18T13:41:40.836Z,45.00
2023-04-18T13:42:40.807Z,50.62
2023-04-18T13:43:40.820Z,45.00
2023-04-18T13:44:40.791Z,45.00
2023-04-18T13:45:40.810Z,45.00
2023-04-18T13:46:40.745Z,45.00
2023-04-18T13:47:40.819Z,45.00
2023-04-18T13:48:40.797Z,39.38
2023-04-18T13:49:40.739Z,33.75
2023-04-18T13:50:40.716Z,39.38
2023-04-18T13:51:40.717Z,39.38
2023-04-18T13:52:40.688Z,39.38
2023-04-18T13:53:40.716Z,45.00
2023-04-18T13:54:40.660Z,39.38
2023-04-18T13:55:40.669Z,33.75
2023-04-18T13:56:40.656Z,33.75
2023-04-18T13:57:40.653Z,33.75
2023-04-18T13:58:40.646Z,28.12
2023-04-18T13:59:40.640Z,28.12
2023-04-18T14:00:40.613Z,28.12
2023-04-18T14:01:40.659Z,28.12
2023-04-18T14:02:40.689Z,28.12
2023-04-18T14:03:43.032Z,28.12
2023-04-18T14:04:40.652Z,28.12
2023-04-18T14:05:40.615Z,28.12
2023-04-18T14:06:40.554Z,33.75
2023-04-18T14:07:40.551Z,33.75
2023-04-18T14:08:40.551Z,39.38
2023-04-18T14:09:40.564Z,39.38
2023-04-18T14:10:40.499Z,84.38
2023-04-18T14:11:40.527Z,50.62
2023-04-18T14:12:40.512Z,50.62
2023-04-18T14:13:40.502Z,45.00
2023-04-18T14:14:40.464Z,39.38
2023-04-18T14:15:40.534Z,33.75
2023-04-18T14:16:40.450Z,33.75
2023-04-18T14:17:40.880Z,28.12
2023-04-18T14:18:40.432Z,28.12
2023-04-18T14:19:40.429Z,28.12
2023-04-18T14:20:40.419Z,28.12
2023-04-18T14:21:40.463Z,28.12
2023-04-18T14:22:40.403Z,28.12
2023-04-18T14:23:40.431Z,28.12
2023-04-18T14:24:40.361Z,28.12
2023-04-18T14:25:40.382Z,28.12
2023-04-18T14:26:40.367Z,28.12
2023-04-18T14:27:40.376Z,33.75
2023-04-18T14:28:40.315Z,39.38
2023-04-18T14:29:40.352Z,45.00
2023-04-18T14:30:40.300Z,45.00
2023-04-18T14:31:40.359Z,50.62
2023-04-18T14:32:40.332Z,56.25
2023-04-18T14:33:40.287Z,61.88
2023-04-18T14:34:40.328Z,39.38
2023-04-18T14:35:40.291Z,33.75
2023-04-18T14:36:40.234Z,28.12
2023-04-18T14:37:40.264Z,33.75
2023-04-18T14:38:40.230Z,33.75
2023-04-18T14:39:40.233Z,33.75
2023-04-18T14:40:40.204Z,33.75
2023-04-18T14:41:40.208Z,33.75
2023-04-18T14:42:40.172Z,28.12
2023-04-18T14:43:40.237Z,33.75
2023-04-18T14:44:40.153Z,33.75
2023-04-18T14:45:40.148Z,33.75
2023-04-18T14:46:40.209Z,33.75
2023-04-18T14:47:40.220Z,39.38
2023-04-18T14:48:40.147Z,73.12
2023-04-18T14:49:40.131Z,67.50
2023-04-18T14:50:40.103Z,45.00
2023-04-18T14:51:40.110Z,39.38
2023-04-18T14:52:40.092Z,67.50
2023-04-18T14:53:40.077Z,45.00
2023-04-18T14:54:40.089Z,33.75
2023-04-18T14:55:40.053Z,28.12
2023-04-18T14:56:40.043Z,33.75
2023-04-18T14:57:40.029Z,33.75
2023-04-18T14:58:40.005Z,33.75
2023-04-18T14:59:40.033Z,73.12
2023-04-18T15:00:40.009Z,56.25
2023-04-18T15:01:40.064Z,28.12
2023-04-18T15:02:40.452Z,22.50
2023-04-18T15:03:40.160Z,22.50
2023-04-18T15:04:40.134Z,33.75
2023-04-18T15:05:39.987Z,28.12
2023-04-18T15:06:39.904Z,56.25
2023-04-18T15:07:39.961Z,33.75
2023-04-18T15:08:39.908Z,28.12
2023-04-18T15:09:39.915Z,28.12
2023-04-18T15:10:39.908Z,33.75
2023-04-18T15:11:39.889Z,67.50
2023-04-18T15:12:39.863Z,39.38
2023-04-18T15:13:39.912Z,39.38
2023-04-18T15:14:39.830Z,33.75
2023-04-18T15:15:39.869Z,28.12
2023-04-18T15:16:39.932Z,22.50
2023-04-18T15:17:40.416Z,16.88
2023-04-18T15:18:39.787Z,16.88
2023-04-18T15:19:39.808Z,16.88
2023-04-18T15:20:39.771Z,16.88
2023-04-18T15:21:39.821Z,16.88
2023-04-18T15:22:39.760Z,16.88
2023-04-18T15:23:39.772Z,16.88
2023-04-18T15:24:39.733Z,22.50
2023-04-18T15:25:39.750Z,22.50
2023-04-18T15:26:39.723Z,22.50
2023-04-18T15:27:39.721Z,22.50
2023-04-18T15:28:39.688Z,28.12
2023-04-18T15:29:39.724Z,28.12
2023-04-18T15:30:39.669Z,28.12
2023-04-18T15:31:39.725Z,129.38
2023-04-18T15:32:39.726Z,28.12
2023-04-18T15:33:39.669Z,28.12
2023-04-18T15:34:39.636Z,33.75
2023-04-18T15:35:39.707Z,39.38
2023-04-18T15:36:39.616Z,84.38
2023-04-18T15:37:39.660Z,33.75
2023-04-18T15:38:39.584Z,33.75
2023-04-18T15:39:39.604Z,28.12
2023-04-18T15:40:39.598Z,28.12
2023-04-18T15:41:39.588Z,33.75
2023-04-18T15:42:39.538Z,39.38
2023-04-18T15:43:39.594Z,39.38
2023-04-18T15:44:39.527Z,33.75
2023-04-18T15:45:39.547Z,33.75
2023-04-18T15:46:39.567Z,11.25
2023-04-18T15:47:39.623Z,11.25
2023-04-18T15:48:39.486Z,5.62
2023-04-18T15:49:39.486Z,5.62
2023-04-18T15:50:39.485Z,5.62
2023-04-18T15:51:40.057Z,5.62
2023-04-18T15:52:39.475Z,5.62
2023-04-18T15:53:39.458Z,5.62
2023-04-18T15:54:39.474Z,5.62
2023-04-18T15:55:39.425Z,11.25
2023-04-18T15:56:39.446Z,11.25
2023-04-18T15:57:39.388Z,11.25
2023-04-18T15:58:39.400Z,11.25
2023-04-18T15:59:39.369Z,11.25
2023-04-18T16:00:39.394Z,11.25
2023-04-18T16:01:39.385Z,11.25
2023-04-18T16:02:39.530Z,11.25
2023-04-18T16:03:39.445Z,11.25
2023-04-18T16:04:39.393Z,11.25
2023-04-18T16:05:39.321Z,11.25
2023-04-18T16:06:39.316Z,11.25
2023-04-18T16:07:39.301Z,11.25
2023-04-18T16:08:39.301Z,11.25
2023-04-18T16:09:39.259Z,11.25
2023-04-18T16:10:39.266Z,16.88
2023-04-18T16:11:39.235Z,16.88
2023-04-18T16:12:39.503Z,16.88
2023-04-18T16:13:39.225Z,16.88
2023-04-18T16:14:39.225Z,11.25
2023-04-18T16:15:39.225Z,11.25
2023-04-18T16:16:39.239Z,11.25
2023-04-18T16:17:39.228Z,11.25
2023-04-18T16:18:39.208Z,16.88
2023-04-18T16:19:39.156Z,16.88
2023-04-18T16:20:39.158Z,16.88
2023-04-18T16:21:39.135Z,16.88
2023-04-18T16:22:39.182Z,22.50
2023-04-18T16:23:39.117Z,16.88
2023-04-18T16:24:41.546Z,16.88
2023-04-18T16:25:39.114Z,16.88
2023-04-18T16:26:39.097Z,16.88
2023-04-18T16:27:39.084Z,16.88
2023-04-18T16:28:39.085Z,11.25
2023-04-18T16:29:39.045Z,11.25
2023-04-18T16:30:39.088Z,11.25
2023-04-18T16:31:39.094Z,5.62
2023-04-18T16:32:39.118Z,5.62
2023-04-18T16:33:39.141Z,5.62
2023-04-18T16:34:39.019Z,5.62
2023-04-18T16:35:39.016Z,5.62
2023-04-18T16:36:39.001Z,5.62
2023-04-18T16:37:38.962Z,5.62
2023-04-18T16:38:38.984Z,0.00
2023-04-18T16:39:38.960Z,0.00
2023-04-18T16:40:38.999Z,0.00
2023-04-18T16:41:38.974Z,0.00
2023-04-18T16:42:38.948Z,0.00
2023-04-18T16:43:38.910Z,0.00
2023-04-18T16:44:38.920Z,0.00
2023-04-18T16:45:38.883Z,0.00
2023-04-18T16:46:38.936Z,0.00
2023-04-18T16:47:38.935Z,5.62
2023-04-18T16:48:38.883Z,5.62
2023-04-18T16:49:38.848Z,5.62
2023-04-18T16:50:38.867Z,5.62
2023-04-18T16:51:38.861Z,5.62
2023-04-18T16:52:38.829Z,5.62
2023-04-18T16:53:38.806Z,5.62
2023-04-18T16:54:38.826Z,0.00
2023-04-18T16:55:38.831Z,0.00
2023-04-18T16:56:38.807Z,0.00
2023-04-18T16:57:38.801Z,0.00
2023-04-18T16:58:38.782Z,0.00
2023-04-18T16:59:38.743Z,0.00
2023-04-18T17:00:38.824Z,0.00
2023-04-18T17:01:38.852Z,0.00
2023-04-18T17:02:38.794Z,0.00
2023-04-18T17:03:38.942Z,0.00
2023-04-18T17:04:38.747Z,0.00
2023-04-18T17:05:38.676Z,0.00
2023-04-18T17:06:38.692Z,0.00
2023-04-18T17:07:38.684Z,0.00
2023-04-18T17:08:38.719Z,0.00
2023-04-18T17:09:38.685Z,0.00
2023-04-18T17:10:38.677Z,0.00
2023-04-18T17:11:39.662Z,0.00
2023-04-18T17:12:38.631Z,0.00
2023-04-18T17:13:38.619Z,0.00
2023-04-18T17:14:38.608Z,0.00
2023-04-18T17:15:38.577Z,0.00
2023-04-18T17:16:38.751Z,0.00
2023-04-18T17:17:38.570Z,0.00
2023-04-18T17:18:38.608Z,0.00
2023-04-18T17:19:38.556Z,0.00
2023-04-18T17:20:38.540Z,0.00
2023-04-18T17:21:38.506Z,0.00
2023-04-18T17:22:38.556Z,0.00
2023-04-18T17:23:38.488Z,0.00
2023-04-18T17:24:38.554Z,0.00
2023-04-18T17:25:38.494Z,0.00
2023-04-18T17:26:38.485Z,0.00
2023-04-18T17:27:38.449Z,0.00
2023-04-18T17:28:38.463Z,0.00
2023-04-18T17:29:38.445Z,0.00
2023-04-18T17:30:38.476Z,0.00
2023-04-18T17:31:38.451Z,0.00
2023-04-18T17:32:38.492Z,0.00
2023-04-18T17:33:38.387Z,0.00
2023-04-18T17:34:38.396Z,0.00
2023-04-18T17:35:38.393Z,0.00
2023-04-18T17:36:38.386Z,0.00
2023-04-18T17:37:38.356Z,0.00
2023-04-18T17:38:38.365Z,0.00
2023-04-18T17:39:38.323Z,0.00
2023-04-18T17:40:38.358Z,0.00
2023-04-18T17:41:38.305Z,0.00
2023-04-18T17:42:38.313Z,0.00
2023-04-18T17:43:38.278Z,0.00
2023-04-18T17:44:38.315Z,0.00
2023-04-18T17:45:38.295Z,0.00
2023-04-18T17:46:38.303Z,0.00
2023-04-18T17:47:38.268Z,0.00
2023-04-18T17:48:38.293Z,0.00
2023-04-18T17:49:38.215Z,0.00
2023-04-18T17:50:38.228Z,0.00
2023-04-18T17:51:38.198Z,0.00
2023-04-18T17:52:38.203Z,0.00
2023-04-18T17:53:38.179Z,0.00
2023-04-18T17:54:38.224Z,0.00
2023-04-18T17:55:38.155Z,0.00
2023-04-18T17:56:38.184Z,0.00
2023-04-18T17:57:38.143Z,0.00
2023-04-18T17:58:38.179Z,0.00
2023-04-18T17:59:38.144Z,0.00
2023-04-18T18:00:38.131Z,0.00
2023-04-18T18:01:38.157Z,0.00
2023-04-18T18:02:38.277Z,0.00
2023-04-18T18:03:38.429Z,0.00
2023-04-18T18:04:38.166Z,0.00
2023-04-18T18:05:38.062Z,0.00
2023-04-18T18:06:38.077Z,0.00
2023-04-18T18:07:38.066Z,0.00
2023-04-18T18:08:38.049Z,0.00
2023-04-18T18:09:38.013Z,0.00
2023-04-18T18:10:38.023Z,0.00
2023-04-18T18:11:38.010Z,0.00
2023-04-18T18:12:38.081Z,0.00
2023-04-18T18:13:37.975Z,0.00
2023-04-18T18:14:37.997Z,0.00
2023-04-18T18:15:37.962Z,0.00
2023-04-18T18:16:38.007Z,0.00
2023-04-18T18:17:37.957Z,0.00
2023-04-18T18:18:37.946Z,0.00
2023-04-18T18:19:37.927Z,0.00
2023-04-18T18:20:37.940Z,0.00
2023-04-18T18:21:37.912Z,0.00
2023-04-18T18:22:37.947Z,0.00
2023-04-18T18:23:37.875Z,0.00
2023-04-18T18:24:37.885Z,0.00
2023-04-18T18:25:37.861Z,0.00
2023-04-18T18:26:37.945Z,0.00
2023-04-18T18:27:37.885Z,0.00
2023-04-18T18:28:37.849Z,0.00
2023-04-18T18:29:37.841Z,0.00
2023-04-18T18:30:37.821Z,0.00
2023-04-18T18:31:37.874Z,0.00
2023-04-18T18:32:37.841Z,0.00
2023-04-18T18:33:37.760Z,0.00
2023-04-18T18:34:37.802Z,0.00
2023-04-18T18:35:37.812Z,0.00
2023-04-18T18:36:37.833Z,0.00
2023-04-18T18:37:37.784Z,0.00
2023-04-18T18:38:37.815Z,0.00
2023-04-18T18:39:37.760Z,0.00
2023-04-18T18:40:37.781Z,0.00
2023-04-18T18:41:37.755Z,0.00
2023-04-18T18:42:37.737Z,0.00
2023-04-18T18:43:37.743Z,0.00
2023-04-18T18:44:37.747Z,0.00
2023-04-18T18:45:37.692Z,0.00
2023-04-18T18:46:37.736Z,0.00
2023-04-18T18:47:39.812Z,0.00
2023-04-18T18:48:37.679Z,0.00
2023-04-18T18:49:37.689Z,0.00
2023-04-18T18:50:37.675Z,0.00
2023-04-18T18:51:37.641Z,0.00
2023-04-18T18:52:37.663Z,0.00
2023-04-18T18:53:40.174Z,0.00
2023-04-18T18:54:37.618Z,0.00
2023-04-18T18:55:37.579Z,0.00
2023-04-18T18:56:37.610Z,0.00
2023-04-18T18:57:37.574Z,0.00
2023-04-18T18:58:37.605Z,0.00
2023-04-18T18:59:37.562Z,0.00
2023-04-18T19:00:37.571Z,0.00
2023-04-18T19:01:37.626Z,0.00
2023-04-18T19:02:38.104Z,0.00
2023-04-18T19:03:37.646Z,0.00
2023-04-18T19:04:37.808Z,0.00
2023-04-18T19:05:37.471Z,0.00
2023-04-18T19:06:37.518Z,0.00
2023-04-18T19:07:37.484Z,0.00
2023-04-18T19:08:37.480Z,0.00
2023-04-18T19:09:37.469Z,0.00
2023-04-18T19:10:37.461Z,0.00
2023-04-18T19:11:37.452Z,0.00
2023-04-18T19:12:37.427Z,0.00
2023-04-18T19:13:37.397Z,0.00
2023-04-18T19:14:37.417Z,0.00
2023-04-18T19:15:37.435Z,0.00
2023-04-18T19:16:37.622Z,0.00
2023-04-18T19:17:37.386Z,0.00
2023-04-18T19:18:37.395Z,0.00
2023-04-18T19:19:37.348Z,0.00
2023-04-18T19:20:37.354Z,0.00
2023-04-18T19:21:37.351Z,0.00
2023-04-18T19:22:37.331Z,0.00
2023-04-18T19:23:37.311Z,0.00
2023-04-18T19:24:37.310Z,0.00
2023-04-18T19:25:37.286Z,0.00
2023-04-18T19:26:37.315Z,0.00
2023-04-18T19:27:37.565Z,0.00
2023-04-18T19:28:37.262Z,0.00
2023-04-18T19:29:37.248Z,0.00
2023-04-18T19:30:37.254Z,0.00
2023-04-18T19:31:37.284Z,0.00
2023-04-18T19:32:37.267Z,0.00
2023-04-18T19:33:37.195Z,0.00
2023-04-18T19:34:37.212Z,0.00
2023-04-18T19:35:38.035Z,0.00
2023-04-18T19:36:37.205Z,0.00
2023-04-18T19:37:37.154Z,0.00
2023-04-18T19:38:37.169Z,0.00
2023-04-18T19:39:37.138Z,0.00
2023-04-18T19:40:37.694Z,0.00
2023-04-18T19:41:37.108Z,0.00
2023-04-18T19:42:37.121Z,0.00
2023-04-18T19:43:37.098Z,0.00
2023-04-18T19:44:37.112Z,0.00
2023-04-18T19:45:37.853Z,0.00
2023-04-18T19:46:37.155Z,0.00
2023-04-18T19:47:37.110Z,0.00
2023-04-18T19:48:37.053Z,0.00
2023-04-18T19:49:37.033Z,0.00
2023-04-18T19:50:37.042Z,0.00
2023-04-18T19:51:37.046Z,0.00
2023-04-18T19:52:37.980Z,0.00
2023-04-18T19:53:36.979Z,0.00
2023-04-18T19:54:36.994Z,0.00
2023-04-18T19:55:36.968Z,0.00
2023-04-18T19:56:36.991Z,0.00
2023-04-18T19:57:36.965Z,0.00
2023-04-18T19:58:36.951Z,0.00
2023-04-18T19:59:36.926Z,0.00
2023-04-18T20:00:36.946Z,0.00
2023-04-18T20:01:36.982Z,0.00
2023-04-18T20:02:37.127Z,0.00
2023-04-18T20:03:37.132Z,0.00
2023-04-18T20:04:37.085Z,0.00
2023-04-18T20:05:36.954Z,0.00
2023-04-18T20:06:36.857Z,0.00
2023-04-18T20:07:36.901Z,0.00
2023-04-18T20:08:36.828Z,0.00
2023-04-18T20:09:36.880Z,0.00
2023-04-18T20:10:36.811Z,0.00
2023-04-18T20:11:36.838Z,0.00
2023-04-18T20:12:36.781Z,0.00
2023-04-18T20:13:36.802Z,0.00
2023-04-18T20:14:36.784Z,0.00
2023-04-18T20:15:36.783Z,0.00
2023-04-18T20:16:36.752Z,0.00
2023-04-18T20:17:36.801Z,0.00
2023-04-18T20:18:36.718Z,0.00
2023-04-18T20:19:36.765Z,0.00
2023-04-18T20:20:36.736Z,0.00
2023-04-18T20:21:36.727Z,0.00
2023-04-18T20:22:36.682Z,0.00
2023-04-18T20:23:36.694Z,0.00
2023-04-18T20:24:36.672Z,0.00
2023-04-18T20:25:36.734Z,0.00
2023-04-18T20:26:36.646Z,0.00
2023-04-18T20:27:36.674Z,0.00
2023-04-18T20:28:36.618Z,0.00
2023-04-18T20:29:36.643Z,0.00
2023-04-18T20:30:36.644Z,0.00
2023-04-18T20:31:36.635Z,0.00
2023-04-18T20:32:36.613Z,0.00
2023-04-18T20:33:36.616Z,0.00
2023-04-18T20:34:36.558Z,0.00
2023-04-18T20:35:36.601Z,0.00
2023-04-18T20:36:36.532Z,0.00
2023-04-18T20:37:36.744Z,0.00
2023-04-18T20:38:36.520Z,0.00
2023-04-18T20:39:36.533Z,0.00
2023-04-18T20:40:36.519Z,0.00
2023-04-18T20:41:36.536Z,0.00
2023-04-18T20:42:36.472Z,0.00
2023-04-18T20:43:36.496Z,0.00
2023-04-18T20:44:36.471Z,0.00
2023-04-18T20:45:36.466Z,0.00
2023-04-18T20:46:36.543Z,0.00
2023-04-18T20:47:36.462Z,0.00
2023-04-18T20:48:36.400Z,0.00
2023-04-18T20:49:36.441Z,0.00
2023-04-18T20:50:36.387Z,0.00
2023-04-18T20:51:36.449Z,0.00
2023-04-18T20:52:36.366Z,0.00
2023-04-18T20:53:36.428Z,0.00
2023-04-18T20:54:36.350Z,0.00
2023-04-18T20:55:36.362Z,0.00
2023-04-18T20:56:36.359Z,0.00
2023-04-18T20:57:36.343Z,0.00
2023-04-18T20:58:36.444Z,0.00
2023-04-18T20:59:36.316Z,0.00
2023-04-18T21:00:36.288Z,0.00
2023-04-18T21:01:37.266Z,0.00
2023-04-18T21:02:36.428Z,0.00
2023-04-18T21:03:36.489Z,0.00
2023-04-18T21:04:36.372Z,0.00
2023-04-18T21:05:36.256Z,0.00
2023-04-18T21:06:36.215Z,0.00
2023-04-18T21:07:36.252Z,0.00
2023-04-18T21:08:36.234Z,0.00
2023-04-18T21:09:36.250Z,0.00
2023-04-18T21:10:36.180Z,0.00
2023-04-18T21:11:36.192Z,0.00
2023-04-18T21:12:36.184Z,0.00
2023-04-18T21:13:36.173Z,0.00
2023-04-18T21:14:36.149Z,0.00
2023-04-18T21:15:36.180Z,0.00
2023-04-18T21:16:36.188Z,0.00
2023-04-18T21:17:36.163Z,0.00
2023-04-18T21:18:36.097Z,0.00
2023-04-18T21:19:36.102Z,0.00
2023-04-18T21:20:36.185Z,0.00
2023-04-18T21:21:36.085Z,0.00
2023-04-18T21:22:36.084Z,0.00
2023-04-18T21:23:36.073Z,0.00
2023-04-18T21:24:36.035Z,0.00
2023-04-18T21:25:36.075Z,0.00
2023-04-18T21:26:36.021Z,0.00
2023-04-18T21:27:36.052Z,0.00
2023-04-18T21:28:35.996Z,0.00
2023-04-18T21:29:36.051Z,0.00
2023-04-18T21:30:35.976Z,0.00
2023-04-18T21:31:36.015Z,0.00
2023-04-18T21:32:35.978Z,0.00
2023-04-18T21:33:35.961Z,0.00
2023-04-18T21:34:35.963Z,0.00
2023-04-18T21:35:35.966Z,0.00
2023-04-18T21:36:35.911Z,0.00
2023-04-18T21:37:35.953Z,0.00
2023-04-18T21:38:35.910Z,0.00
2023-04-18T21:39:35.925Z,0.00
2023-04-18T21:40:35.890Z,0.00
2023-04-18T21:41:35.889Z,0.00
2023-04-18T21:42:35.852Z,0.00
2023-04-18T21:43:35.878Z,0.00
2023-04-18T21:44:35.824Z,0.00
2023-04-18T21:45:35.891Z,0.00
2023-04-18T21:46:35.802Z,0.00
2023-04-18T21:47:35.852Z,0.00
2023-04-18T21:48:35.783Z,0.00
2023-04-18T21:49:35.810Z,0.00
2023-04-18T21:50:35.785Z,0.00
2023-04-18T21:51:35.779Z,0.00
2023-04-18T21:52:35.771Z,0.00
2023-04-18T21:53:35.766Z,0.00
2023-04-18T21:54:35.726Z,0.00
2023-04-18T21:55:35.731Z,0.00
2023-04-18T21:56:35.706Z,0.00
2023-04-18T21:57:35.751Z,0.00
2023-04-18T21:58:35.717Z,0.00
2023-04-18T21:59:35.684Z,0.00
2023-04-18T22:00:35.687Z,0.00
2023-04-18T22:01:35.783Z,0.00
2023-04-18T22:02:35.757Z,0.00
2023-04-18T22:03:35.740Z,0.00
2023-04-18T22:04:35.679Z,0.00
2023-04-18T22:05:35.638Z,0.00
2023-04-18T22:06:35.611Z,0.00
2023-04-18T22:07:40.768Z,0.00
2023-04-18T22:08:35.587Z,0.00
2023-04-18T22:09:35.630Z,0.00
2023-04-18T22:10:35.558Z,0.00
2023-04-18T22:11:35.576Z,0.00
2023-04-18T22:12:35.534Z,0.00
2023-04-18T22:13:35.589Z,0.00
2023-04-18T22:14:35.556Z,0.00
2023-04-18T22:15:35.538Z,0.00
2023-04-18T22:16:35.516Z,0.00
2023-04-18T22:17:35.822Z,0.00
2023-04-18T22:18:36.918Z,0.00
2023-04-18T22:19:35.874Z,0.00
2023-04-18T22:20:35.459Z,0.00
2023-04-18T22:21:35.940Z,0.00
2023-04-18T22:22:35.434Z,0.00
2023-04-18T22:23:35.454Z,0.00
2023-04-18T22:24:35.410Z,0.00
2023-04-18T22:25:35.426Z,0.00
2023-04-18T22:26:35.495Z,0.00
2023-04-18T22:27:35.402Z,0.00
2023-04-18T22:28:35.376Z,0.00
2023-04-18T22:29:35.424Z,0.00
2023-04-18T22:30:35.350Z,0.00
2023-04-18T22:31:35.360Z,0.00
2023-04-18T22:32:35.367Z,0.00
2023-04-18T22:33:35.349Z,0.00
2023-04-18T22:34:35.308Z,0.00
2023-04-18T22:35:35.338Z,0.00
2023-04-18T22:36:35.292Z,0.00
2023-04-18T22:37:35.332Z,0.00
2023-04-18T22:38:35.305Z,0.00
2023-04-18T22:39:35.280Z,0.00
2023-04-18T22:40:35.236Z,0.00
2023-04-18T22:41:35.272Z,0.00
2023-04-18T22:42:37.260Z,0.00
2023-04-18T22:43:35.266Z,0.00
2023-04-18T22:44:35.209Z,0.00
2023-04-18T22:45:35.236Z,0.00
2023-04-18T22:46:35.362Z,0.00
2023-04-18T22:47:35.238Z,0.00
2023-04-18T22:48:35.312Z,0.00
2023-04-18T22:49:35.182Z,0.00
2023-04-18T22:50:35.149Z,0.00
2023-04-18T22:51:35.168Z,0.00
2023-04-18T22:52:35.162Z,0.00
2023-04-18T22:53:35.147Z,0.00
2023-04-18T22:54:35.106Z,0.00
2023-04-18T22:55:35.147Z,0.00
2023-04-18T22:56:35.084Z,0.00
2023-04-18T22:57:35.105Z,0.00
2023-04-18T22:58:35.061Z,0.00
2023-04-18T22:59:35.079Z,0.00
2023-04-18T23:00:35.075Z,0.00
2023-04-18T23:01:35.075Z,0.00
2023-04-18T23:02:35.140Z,0.00
2023-04-18T23:03:35.144Z,0.00
2023-04-18T23:04:35.174Z,0.00
2023-04-18T23:05:35.008Z,0.00
2023-04-18T23:06:34.990Z,0.00
2023-04-18T23:07:34.989Z,0.00
2023-04-18T23:08:34.988Z,0.00
2023-04-18T23:09:35.007Z,0.00
2023-04-18T23:10:34.974Z,0.00
2023-04-18T23:11:34.962Z,0.00
2023-04-18T23:12:34.912Z,0.00
2023-04-18T23:13:34.956Z,0.00
2023-04-18T23:14:34.905Z,0.00
2023-04-18T23:15:34.964Z,0.00
2023-04-18T23:16:34.876Z,0.00
2023-04-18T23:17:34.999Z,0.00
2023-04-18T23:18:34.884Z,0.00